Time;durP1;ratioP1;P1;durP2;ratioP2;P2;SDS_P1;SDS_P2;PMS_P1;PMS_P2;Temp;Humidity;BMP_temperature;BMP_pressure;BME280_temperature;BME280_humidity;BME280_pressure;Samples;Min_cycle;Max_cycle;Signal;HPM_P1;HPM_P2
2022/08/20 00:00:55;;;;;;;2.25;1.08;;;;;;;18.28;100.00;95853.66;5052975;28;24503;-76
2022/08/20 00:03:26;;;;;;;1.20;0.90;;;;;;;18.27;100.00;95846.75;5048231;28;24439;-76
2022/08/20 00:05:57;;;;;;;1.50;0.73;;;;;;;18.26;100.00;95848.56;5052844;28;24508;-76
2022/08/20 00:08:23;;;;;;;1.75;1.00;;;;;;;18.30;100.00;95855.16;5049686;28;24785;-76
2022/08/20 00:10:52;;;;;;;0.90;0.73;;;;;;;18.41;100.00;95838.44;5046666;28;24431;-76
2022/08/20 00:13:21;;;;;;;0.88;0.77;;;;;;;18.48;100.00;95850.03;5049285;28;24438;-76
2022/08/20 00:15:48;;;;;;;0.80;0.80;;;;;;;18.51;100.00;95847.13;5050487;28;24431;-77
2022/08/20 00:18:15;;;;;;;0.93;0.70;;;;;;;18.52;100.00;95846.13;5049100;28;24443;-76
2022/08/20 00:20:46;;;;;;;1.80;0.80;;;;;;;18.48;100.00;95849.19;5049879;28;24443;-76
2022/08/20 00:23:13;;;;;;;1.63;1.00;;;;;;;18.49;100.00;95848.22;5049575;28;24431;-76
2022/08/20 00:25:39;;;;;;;2.08;0.88;;;;;;;18.46;100.00;95857.19;5052398;28;25003;-76
2022/08/20 00:28:08;;;;;;;1.27;1.02;;;;;;;18.47;100.00;95850.19;5048955;28;24435;-76
2022/08/20 00:30:35;;;;;;;1.98;0.90;;;;;;;18.40;100.00;95854.34;5052317;28;24431;-76
2022/08/20 00:33:05;;;;;;;1.30;0.90;;;;;;;18.38;100.00;95851.84;5050479;28;24427;-76
2022/08/20 00:35:34;;;;;;;1.30;0.90;;;;;;;18.38;100.00;95847.41;5047170;28;24451;-76
2022/08/20 00:38:01;;;;;;;1.55;0.90;;;;;;;18.37;100.00;95850.19;5046168;28;24442;-76
2022/08/20 00:40:30;;;;;;;1.55;0.90;;;;;;;18.40;100.00;95847.28;5041053;28;24435;-76
2022/08/20 00:42:59;;;;;;;1.70;1.10;;;;;;;18.37;100.00;95845.78;5043692;28;24446;-77
2022/08/20 00:45:30;;;;;;;2.63;1.05;;;;;;;18.42;100.00;95847.13;5051758;28;24431;-76
2022/08/20 00:47:57;;;;;;;2.20;0.98;;;;;;;18.48;100.00;95851.81;5049162;28;24446;-76
2022/08/20 00:50:27;;;;;;;1.30;1.00;;;;;;;18.52;100.00;95851.38;5051925;28;24454;-76
2022/08/20 00:52:55;;;;;;;1.50;0.80;;;;;;;18.52;100.00;95847.94;5041020;28;24442;-75
2022/08/20 00:55:25;;;;;;;1.15;0.80;;;;;;;18.56;100.00;95851.94;5040161;28;24467;-76
2022/08/20 00:57:54;;;;;;;0.70;0.68;;;;;;;18.56;100.00;95857.19;5047949;28;24440;-76
2022/08/20 01:00:24;;;;;;;1.85;0.95;;;;;;;18.58;100.00;95848.19;5046193;28;24940;-76
2022/08/20 01:02:52;;;;;;;2.50;1.30;;;;;;;18.62;100.00;95859.25;5041434;28;24512;-76
2022/08/20 01:05:22;;;;;;;1.48;1.13;;;;;;;18.55;100.00;95863.41;5042981;28;24600;-76
2022/08/20 01:07:49;;;;;;;1.38;1.08;;;;;;;18.48;100.00;95867.56;5049295;28;24485;-76
2022/08/20 01:10:19;;;;;;;1.30;1.00;;;;;;;18.52;100.00;95863.69;5043634;28;24444;-76
2022/08/20 01:12:47;;;;;;;1.20;0.90;;;;;;;18.50;100.00;95865.59;5046870;28;24458;-76
2022/08/20 01:15:16;;;;;;;1.60;1.02;;;;;;;18.62;100.00;95864.47;5049562;28;24462;-76
2022/08/20 01:17:48;;;;;;;2.30;0.90;;;;;;;18.57;100.00;95862.25;5049302;28;24873;-76
2022/08/20 01:20:19;;;;;;;1.90;1.10;;;;;;;18.54;100.00;95862.56;5042567;28;24945;-76
2022/08/20 01:25:45;;;;;;;1.60;1.02;;;;;;;18.49;100.00;95862.16;5045198;28;25365;-76
2022/08/20 01:28:14;;;;;;;4.70;1.05;;;;;;;18.51;100.00;95862.03;5043068;28;24431;-76
2022/08/20 01:30:42;;;;;;;1.93;1.20;;;;;;;18.50;100.00;95871.69;5046337;28;24458;-76
2022/08/20 01:33:09;;;;;;;1.95;1.10;;;;;;;18.49;100.00;95867.41;5042574;28;24442;-76
2022/08/20 01:35:37;;;;;;;2.17;1.10;;;;;;;18.47;100.00;95873.78;5045513;28;24810;-77
2022/08/20 01:38:04;;;;;;;1.30;1.00;;;;;;;18.48;100.00;95873.63;5040045;28;24436;-77
2022/08/20 01:40:54;;;;;;;2.22;1.08;;;;;;;18.59;100.00;95873.47;5041614;28;24447;-76
2022/08/20 01:43:22;;;;;;;2.58;1.27;;;;;;;18.65;100.00;95874.69;5049705;28;24447;-77
2022/08/20 01:45:49;;;;;;;0.90;0.90;;;;;;;18.65;100.00;95874.69;5046663;28;24496;-77
2022/08/20 01:48:18;;;;;;;1.50;1.00;;;;;;;18.68;100.00;95878.81;5049222;28;24451;-77
2022/08/20 01:50:51;;;;;;;1.00;0.90;;;;;;;18.65;100.00;95876.47;5046719;28;24493;-77
2022/08/20 01:53:24;;;;;;;1.55;1.20;;;;;;;18.68;100.00;95886.69;5048049;28;24427;-76
2022/08/20 01:55:52;;;;;;;1.00;0.90;;;;;;;18.65;100.00;95884.34;5044351;28;24451;-76
2022/08/20 01:58:18;;;;;;;1.40;1.10;;;;;;;18.67;100.00;95883.22;5049313;28;24431;-77
2022/08/20 02:00:44;;;;;;;2.40;1.10;;;;;;;18.74;100.00;95881.72;5046735;28;24813;-77
2022/08/20 02:03:13;;;;;;;1.30;1.00;;;;;;;18.74;100.00;95876.47;5048563;28;21315;-77
2022/08/20 02:05:39;;;;;;;3.22;1.10;;;;;;;18.63;100.00;95880.06;5046868;28;24450;-77
2022/08/20 02:08:06;;;;;;;1.67;1.10;;;;;;;18.53;100.00;95881.88;5047582;28;24522;-77
2022/08/20 02:10:33;;;;;;;2.20;1.50;;;;;;;18.44;100.00;95890.63;5047250;28;24446;-77
2022/08/20 02:13:01;;;;;;;1.80;1.20;;;;;;;18.44;100.00;95887.16;5047739;28;24455;-77
2022/08/20 02:15:28;;;;;;;3.03;1.70;;;;;;;18.37;100.00;95887.72;5049101;28;24526;-76
2022/08/20 02:17:56;;;;;;;2.13;1.38;;;;;;;18.31;100.00;95892.69;5044024;28;24432;-77
2022/08/20 02:20:30;;;;;;;1.90;1.60;;;;;;;18.28;100.00;95890.34;5042495;28;24522;-76
2022/08/20 02:22:58;;;;;;;1.80;1.30;;;;;;;18.23;100.00;95890.78;5049850;28;25270;-77
2022/08/20 02:25:30;;;;;;;3.03;1.55;;;;;;;18.23;100.00;95887.34;5047551;28;24806;-77
2022/08/20 02:27:59;;;;;;;2.80;1.60;;;;;;;18.37;100.00;95889.53;5044160;28;25026;-77
2022/08/20 02:30:32;;;;;;;3.75;1.50;;;;;;;18.26;100.00;95889.69;5036920;28;24854;-77
2022/08/20 02:32:59;;;;;;;1.50;1.40;;;;;;;18.28;100.00;95895.59;5044767;28;24446;-77
2022/08/20 02:35:26;;;;;;;4.13;1.50;;;;;;;18.30;100.00;95897.13;5047439;28;24542;-77
2022/08/20 02:37:54;;;;;;;2.92;1.30;;;;;;;18.28;100.00;95893.84;5044183;28;25011;-77
2022/08/20 02:40:25;;;;;;;1.83;1.30;;;;;;;18.20;100.00;95892.84;5044183;28;24439;-77
2022/08/20 02:42:51;;;;;;;2.30;1.60;;;;;;;18.19;100.00;95891.22;5045956;28;24439;-77
2022/08/20 02:45:19;;;;;;;2.25;1.38;;;;;;;18.24;100.00;95887.19;5044976;28;24466;-77
2022/08/20 02:47:47;;;;;;;2.00;1.40;;;;;;;18.15;100.00;95882.81;5042971;28;24798;-76
2022/08/20 02:50:16;;;;;;;2.17;1.70;;;;;;;18.00;100.00;95877.16;5046817;28;24805;-77
2022/08/20 02:52:44;;;;;;;1.80;1.50;;;;;;;18.01;100.00;95878.81;5043386;28;24431;-77
2022/08/20 02:55:12;;;;;;;4.28;1.80;;;;;;;17.99;100.00;95869.44;5044759;28;25356;-76
2022/08/20 02:57:40;;;;;;;3.50;1.63;;;;;;;18.00;100.00;95865.84;5044744;28;25008;-77
2022/08/20 03:00:09;;;;;;;2.22;1.70;;;;;;;17.93;100.00;95870.81;5045035;28;24443;-77
2022/08/20 03:02:36;;;;;;;2.97;2.25;;;;;;;17.93;100.00;95872.63;5044231;28;24619;-77
2022/08/20 03:05:05;;;;;;;2.50;1.80;;;;;;;17.88;100.00;95880.91;5043376;28;24446;-76
2022/08/20 03:07:32;;;;;;;1.65;1.52;;;;;;;17.85;100.00;95882.00;5044460;28;24461;-76
2022/08/20 03:09:58;;;;;;;2.67;2.08;;;;;;;17.97;100.00;95876.59;5040505;28;25047;-77
2022/08/20 03:12:25;;;;;;;1.85;1.67;;;;;;;17.94;100.00;95882.13;5040896;28;24444;-76
2022/08/20 03:14:51;;;;;;;2.53;2.00;;;;;;;18.02;100.00;95880.47;5048141;28;24619;-76
2022/08/20 03:17:18;;;;;;;2.97;2.13;;;;;;;18.05;100.00;95881.97;5039522;28;24443;-76
2022/08/20 03:19:44;;;;;;;1.80;1.70;;;;;;;18.11;100.00;95874.38;5046861;28;24427;-76
2022/08/20 03:22:12;;;;;;;1.85;1.63;;;;;;;18.17;100.00;95878.25;5046140;28;24435;-75
2022/08/20 03:24:38;;;;;;;2.28;1.73;;;;;;;18.19;100.00;95881.56;5044734;28;25186;-76
2022/08/20 03:27:05;;;;;;;2.00;1.80;;;;;;;18.21;100.00;95882.25;5049804;28;24798;-75
2022/08/20 03:29:31;;;;;;;2.42;1.60;;;;;;;18.22;100.00;95883.06;5050782;28;24447;-76
2022/08/20 03:31:58;;;;;;;2.57;1.93;;;;;;;18.26;100.00;95882.66;5054000;28;24525;-76
2022/08/20 03:34:24;;;;;;;2.15;1.92;;;;;;;18.20;100.00;95877.13;5047803;28;24442;-77
2022/08/20 03:36:51;;;;;;;3.78;2.20;;;;;;;18.20;100.00;95874.50;5047053;28;24440;-77
2022/08/20 03:39:19;;;;;;;2.90;2.07;;;;;;;18.18;100.00;95873.84;5049131;28;24513;-76
2022/08/20 03:41:45;;;;;;;3.13;2.13;;;;;;;18.15;100.00;95867.06;5046189;28;24473;-76
2022/08/20 03:44:12;;;;;;;2.63;1.98;;;;;;;18.17;100.00;95864.31;5051753;28;24446;-76
2022/08/20 03:46:38;;;;;;;2.65;1.92;;;;;;;18.06;100.00;95863.50;5050714;28;24435;-76
2022/08/20 03:49:05;;;;;;;3.10;1.92;;;;;;;18.11;100.00;95860.47;5049395;28;24431;-76
2022/08/20 03:51:32;;;;;;;2.15;1.95;;;;;;;18.14;100.00;95866.25;5047407;28;24431;-76
2022/08/20 03:53:59;;;;;;;3.85;2.10;;;;;;;18.19;100.00;95859.75;5049824;28;24446;-77
2022/08/20 03:56:27;;;;;;;2.42;1.83;;;;;;;18.10;100.00;95858.81;5050189;28;24462;-76
2022/08/20 03:58:54;;;;;;;2.13;1.88;;;;;;;18.06;100.00;95870.56;5049903;28;24438;-75
2022/08/20 04:01:20;;;;;;;1.70;1.60;;;;;;;18.07;100.00;95861.72;5040630;28;24439;-77
2022/08/20 04:03:47;;;;;;;2.00;1.80;;;;;;;18.04;100.00;95868.06;5044116;28;24435;-77
2022/08/20 04:06:14;;;;;;;2.92;2.10;;;;;;;18.03;100.00;95870.81;5041528;28;24913;-76
2022/08/20 04:08:41;;;;;;;3.33;1.83;;;;;;;18.08;100.00;95869.41;5045989;28;24446;-74
2022/08/20 04:11:07;;;;;;;3.25;2.03;;;;;;;18.09;100.00;95878.09;5046552;28;24435;-77
2022/08/20 04:13:35;;;;;;;2.15;1.88;;;;;;;18.11;100.00;95871.75;5051916;28;24993;-77
2022/08/20 04:16:07;;;;;;;2.60;1.85;;;;;;;18.14;100.00;95871.50;5051531;28;24545;-77
2022/08/20 04:18:35;;;;;;;2.25;1.90;;;;;;;18.17;100.00;95877.41;5052416;28;24499;-78
2022/08/20 04:21:02;;;;;;;2.55;1.92;;;;;;;18.20;100.00;95874.50;5055674;28;24996;-77
2022/08/20 04:23:30;;;;;;;2.00;1.80;;;;;;;18.22;100.00;95886.53;5054767;28;24427;-77
2022/08/20 04:25:57;;;;;;;2.65;1.92;;;;;;;18.20;100.00;95883.19;5050251;28;24431;-77
2022/08/20 04:28:26;;;;;;;2.35;1.90;;;;;;;18.13;100.00;95892.59;5044250;28;24505;-77
2022/08/20 04:30:55;;;;;;;4.60;1.90;;;;;;;18.08;100.00;95885.16;5049647;28;24431;-77
2022/08/20 04:33:23;;;;;;;2.40;1.90;;;;;;;18.09;100.00;95883.34;5039681;28;24450;-76
2022/08/20 04:35:49;;;;;;;3.40;2.00;;;;;;;18.03;100.00;95891.78;5045652;28;24444;-75
2022/08/20 04:38:18;;;;;;;2.90;2.20;;;;;;;18.00;100.00;95892.88;5045797;28;24860;-77
2022/08/20 04:40:54;;;;;;;2.28;1.83;;;;;;;17.98;100.00;95891.34;5051076;28;24431;-75
2022/08/20 04:43:21;;;;;;;3.80;2.20;;;;;;;18.03;100.00;95895.22;5044067;28;24443;-76
2022/08/20 04:45:49;;;;;;;3.13;1.77;;;;;;;18.07;100.00;95899.22;5038183;28;24490;-74
2022/08/20 04:48:17;;;;;;;2.40;1.73;;;;;;;18.09;100.00;95899.91;5045467;28;24999;-73
2022/08/20 04:50:46;;;;;;;2.67;1.98;;;;;;;18.09;100.00;95907.75;5051125;28;24450;-74
2022/08/20 04:53:16;;;;;;;3.13;2.30;;;;;;;18.02;100.00;95904.06;5045679;28;24521;-74
2022/08/20 04:55:44;;;;;;;2.33;2.13;;;;;;;18.01;100.00;95909.44;5048535;28;24458;-74
2022/08/20 04:58:12;;;;;;;4.97;2.30;;;;;;;18.03;100.00;95904.88;5046146;28;25046;-74
2022/08/20 05:00:40;;;;;;;2.53;2.13;;;;;;;18.07;100.00;95899.22;5042727;28;24594;-74
2022/08/20 05:03:07;;;;;;;3.55;2.38;;;;;;;18.06;100.00;95909.88;5044744;28;24450;-74
2022/08/20 05:05:35;;;;;;;2.92;2.13;;;;;;;18.08;100.00;95913.97;5049372;28;24489;-75
2022/08/20 05:08:02;;;;;;;3.00;2.30;;;;;;;18.13;100.00;95913.56;5046775;28;24439;-74
2022/08/20 05:10:29;;;;;;;2.47;2.20;;;;;;;18.17;100.00;95911.47;5049226;28;24443;-74
2022/08/20 05:12:55;;;;;;;2.67;2.23;;;;;;;18.17;100.00;95917.56;5046819;28;24977;-74
2022/08/20 05:15:23;;;;;;;3.23;2.13;;;;;;;18.15;100.00;95914.25;5049711;28;24564;-73
2022/08/20 05:17:55;;;;;;;2.63;2.42;;;;;;;18.26;100.00;95913.28;5047069;28;24481;-74
2022/08/20 05:20:22;;;;;;;2.63;2.40;;;;;;;18.25;100.00;95914.25;5043312;28;24430;-74
2022/08/20 05:22:50;;;;;;;2.63;2.43;;;;;;;18.21;100.00;95920.75;5046949;28;24427;-74
2022/08/20 05:25:16;;;;;;;2.50;2.30;;;;;;;18.28;100.00;95916.56;5049210;28;24435;-74
2022/08/20 05:27:43;;;;;;;3.65;2.53;;;;;;;18.27;100.00;95913.13;5045873;28;24432;-74
2022/08/20 05:30:11;;;;;;;2.47;2.28;;;;;;;18.29;100.00;95928.75;5049321;28;24995;-74
2022/08/20 05:32:38;;;;;;;2.57;2.20;;;;;;;18.29;100.00;95926.94;5047183;28;24459;-75
2022/08/20 05:35:09;;;;;;;3.42;2.40;;;;;;;18.38;100.00;95922.63;5042444;28;24439;-74
2022/08/20 05:37:36;;;;;;;7.50;2.70;;;;;;;18.38;100.00;95920.84;5046688;28;24874;-74
2022/08/20 05:40:09;;;;;;;3.22;2.60;;;;;;;18.31;100.00;95922.38;5049269;28;24841;-74
2022/08/20 05:42:36;;;;;;;2.80;2.33;;;;;;;18.13;100.00;95926.66;5047200;28;24502;-74
2022/08/20 05:45:03;;;;;;;2.53;2.30;;;;;;;18.21;100.00;95929.44;5050232;28;24547;-74
2022/08/20 05:47:30;;;;;;;5.50;2.70;;;;;;;18.22;100.00;95936.31;5047188;28;24430;-74
2022/08/20 05:49:56;;;;;;;3.17;2.13;;;;;;;18.24;100.00;95931.75;5049158;28;24534;-74
2022/08/20 05:52:23;;;;;;;3.55;2.25;;;;;;;18.28;100.00;95935.78;5036704;28;24430;-73
2022/08/20 05:54:52;;;;;;;2.50;2.22;;;;;;;18.30;100.00;95935.63;5050153;28;24434;-74
2022/08/20 05:57:19;;;;;;;4.30;2.38;;;;;;;18.31;100.00;95939.91;5047578;28;24452;-74
2022/08/20 05:59:46;;;;;;;2.78;2.20;;;;;;;18.23;100.00;95937.97;5045493;28;24457;-74
2022/08/20 06:04:53;;;;;;;2.55;2.35;;;;;;;18.21;100.00;95936.47;5046327;28;24489;-74
2022/08/20 06:07:19;;;;;;;2.42;2.22;;;;;;;18.22;100.00;95932.88;5042561;28;24435;-74
2022/08/20 06:09:46;;;;;;;2.45;2.10;;;;;;;18.26;100.00;95932.47;5042350;28;24431;-74
2022/08/20 06:12:12;;;;;;;3.28;2.45;;;;;;;18.31;100.00;95935.47;5043026;28;24438;-74
2022/08/20 06:14:40;;;;;;;5.00;2.42;;;;;;;18.27;100.00;95934.09;5050386;28;24432;-75
2022/08/20 06:17:11;;;;;;;3.47;2.20;;;;;;;18.23;100.00;95932.72;5043118;28;24810;-75
2022/08/20 06:19:38;;;;;;;2.75;2.55;;;;;;;18.27;100.00;95933.28;5044290;28;24434;-74
2022/08/20 06:22:06;;;;;;;4.47;2.88;;;;;;;18.19;100.00;95936.59;5044059;28;24435;-75
2022/08/20 06:24:33;;;;;;;5.03;2.80;;;;;;;18.22;100.00;95938.13;5043788;28;24519;-75
2022/08/20 06:27:02;;;;;;;3.30;2.77;;;;;;;18.29;100.00;95940.03;5044930;28;24434;-74
2022/08/20 06:29:30;;;;;;;3.95;2.85;;;;;;;18.27;100.00;95941.16;5049272;28;24438;-74
2022/08/20 06:31:59;;;;;;;3.90;2.97;;;;;;;18.34;100.00;95939.63;5045716;28;24528;-74
2022/08/20 06:34:27;;;;;;;2.88;2.58;;;;;;;18.42;100.00;95931.06;5044229;28;24448;-74
2022/08/20 06:36:53;;;;;;;3.83;3.00;;;;;;;18.42;100.00;95931.06;5046268;28;24454;-74
2022/08/20 06:39:21;;;;;;;2.65;2.42;;;;;;;18.48;100.00;95935.75;5048468;28;24454;-75
2022/08/20 06:41:47;;;;;;;3.65;2.65;;;;;;;18.48;100.00;95931.31;5045640;28;24782;-74
2022/08/20 06:44:14;;;;;;;3.45;2.75;;;;;;;18.53;100.00;95939.59;5048731;28;24431;-75
2022/08/20 06:46:42;;;;;;;4.60;2.55;;;;;;;18.54;100.00;95941.25;5045942;28;24508;-75
2022/08/20 06:49:10;;;;;;;5.03;2.70;;;;;;;18.57;100.00;95940.13;5048815;28;24431;-74
2022/08/20 06:51:37;;;;;;;2.78;2.58;;;;;;;18.56;100.00;95943.72;5046166;28;24439;-74
2022/08/20 06:54:04;;;;;;;3.90;2.78;;;;;;;18.57;100.00;95940.94;5048970;28;24980;-74
2022/08/20 06:56:31;;;;;;;3.10;2.80;;;;;;;18.50;100.00;95934.66;5046388;28;24451;-74
2022/08/20 06:58:58;;;;;;;3.47;2.80;;;;;;;18.52;100.00;95937.13;5048949;28;24543;-74
2022/08/20 07:01:25;;;;;;;3.17;2.80;;;;;;;18.52;100.00;95937.94;5048052;28;24798;-74
2022/08/20 07:03:52;;;;;;;3.33;2.63;;;;;;;18.49;100.00;95935.59;5055970;28;24442;-74
2022/08/20 07:06:19;;;;;;;5.00;2.60;;;;;;;18.59;100.00;95935.59;5053665;28;24434;-73
2022/08/20 07:08:46;;;;;;;3.22;2.80;;;;;;;18.65;100.00;95942.03;5055854;28;24440;-73
2022/08/20 07:11:12;;;;;;;5.30;2.80;;;;;;;18.70;100.00;95939.84;5053028;28;24434;-73
2022/08/20 07:13:40;;;;;;;2.87;2.57;;;;;;;18.77;100.00;95943.59;5050262;28;24457;-72
2022/08/20 07:16:07;;;;;;;4.57;2.85;;;;;;;18.78;100.00;95943.44;5053138;28;25077;-73
2022/08/20 07:18:34;;;;;;;4.40;2.58;;;;;;;18.91;100.00;95942.28;5050849;28;24801;-73
2022/08/20 07:21:00;;;;;;;4.40;2.78;;;;;;;18.98;100.00;95945.97;5053691;28;24442;-72
2022/08/20 07:23:30;;;;;;;3.40;2.55;;;;;;;18.90;100.00;95951.94;5051692;28;24908;-73
2022/08/20 07:25:56;;;;;;;4.00;2.47;;;;;;;18.97;100.00;95949.59;5050426;28;24438;-73
2022/08/20 07:28:27;;;;;;;3.50;2.80;;;;;;;19.05;100.00;95950.50;5052164;28;24432;-73
2022/08/20 07:33:39;;;;;;;3.72;2.72;;;;;;;19.15;100.00;95960.16;5046067;28;24786;-73
2022/08/20 07:36:06;;;;;;;2.58;2.35;;;;;;;19.25;100.00;95960.97;5055568;28;24459;-73
2022/08/20 07:38:35;;;;;;;3.38;2.53;;;;;;;19.32;100.00;95956.78;5051517;28;24864;-72
2022/08/20 07:41:04;;;;;;;4.63;2.30;;;;;;;19.45;100.00;95959.06;5054185;28;24438;-73
2022/08/20 07:43:32;;;;;;;3.00;2.40;;;;;;;19.52;100.00;95963.56;5051894;28;24463;-73
2022/08/20 07:46:00;;;;;;;2.80;2.47;;;;;;;19.56;100.00;95967.56;5055106;28;24423;-73
2022/08/20 07:48:29;;;;;;;2.55;2.20;;;;;;;19.58;100.00;95972.69;5052339;28;24436;-73
2022/08/20 07:50:56;;;;;;;5.28;2.30;;;;;;;19.55;100.00;95971.16;5054874;28;24576;-73
2022/08/20 07:53:23;;;;;;;2.90;2.30;;;;;;;19.68;100.00;95972.66;5046353;28;24516;-73
2022/08/20 07:55:50;;;;;;;3.03;2.03;;;;;;;19.69;100.00;95974.28;5054934;28;24438;-73
2022/08/20 07:58:19;;;;;;;2.75;2.03;;;;;;;19.82;100.00;95972.97;5052790;28;24435;-73
2022/08/20 08:00:46;;;;;;;2.65;2.10;;;;;;;19.72;100.00;95974.81;5055479;28;24477;-73
2022/08/20 08:03:13;;;;;;;4.85;2.10;;;;;;;19.72;100.00;95977.44;5053200;28;24439;-73
2022/08/20 08:05:43;;;;;;;3.00;2.00;;;;;;;19.77;100.00;95979.66;5054825;28;24519;-73
2022/08/20 08:08:13;;;;;;;3.10;2.00;;;;;;;19.78;100.00;95979.50;5053733;28;24423;-73
2022/08/20 08:10:42;;;;;;;4.10;2.22;;;;;;;19.81;100.00;95978.38;5055398;28;24435;-74
2022/08/20 08:13:12;;;;;;;3.10;1.92;;;;;;;19.92;100.00;95979.97;5052902;28;24454;-73
2022/08/20 08:15:44;;;;;;;3.40;1.80;;;;;;;19.91;100.00;95973.03;5052185;28;24983;-73
2022/08/20 08:18:15;;;;;;;2.47;1.90;;;;;;;20.06;100.00;95974.22;5050616;28;24430;-73
2022/08/20 08:20:44;;;;;;;2.20;1.77;;;;;;;20.24;100.00;95979.44;5047132;28;24442;-73
2022/08/20 08:23:11;;;;;;;2.08;1.67;;;;;;;20.22;100.00;95976.97;5044977;28;24964;-73
2022/08/20 08:25:38;;;;;;;3.03;1.95;;;;;;;20.05;100.00;95972.53;5052437;28;24514;-73
2022/08/20 08:28:04;;;;;;;6.18;1.77;;;;;;;20.10;100.00;95977.34;5046267;28;24435;-73
2022/08/20 08:30:32;;;;;;;1.60;1.50;;;;;;;20.11;100.00;95971.94;5051500;28;24431;-73
2022/08/20 08:35:45;;;;;;;1.90;1.70;;;;;;;20.26;100.00;95977.50;5041231;28;24823;-74
2022/08/20 08:38:12;;;;;;;3.97;1.67;;;;;;;20.31;100.00;95970.78;5045318;28;24497;-73
2022/08/20 08:40:40;;;;;;;2.58;1.85;;;;;;;20.17;100.00;95973.13;5052190;28;24431;-73
2022/08/20 08:43:06;;;;;;;3.00;1.58;;;;;;;20.16;100.00;95971.50;5046059;28;24438;-73
2022/08/20 08:45:42;;;;;;;1.90;1.70;;;;;;;20.26;100.00;95980.13;5045922;28;24431;-73
2022/08/20 08:48:10;;;;;;;3.72;2.10;;;;;;;20.21;100.00;95985.00;5046788;28;24837;-73
2022/08/20 08:50:38;;;;;;;3.35;2.30;;;;;;;20.24;100.00;95982.06;5052031;28;24439;-73
2022/08/20 08:53:05;;;;;;;4.50;2.53;;;;;;;20.25;100.00;95984.56;5046620;28;24493;-73
2022/08/20 08:55:32;;;;;;;4.23;1.93;;;;;;;20.30;100.00;95984.94;5051315;28;24524;-73
2022/08/20 08:58:01;;;;;;;2.13;1.67;;;;;;;20.21;100.00;95990.25;5047041;28;24474;-73
2022/08/20 09:00:29;;;;;;;4.13;1.80;;;;;;;20.19;100.00;95992.22;5042613;28;24435;-73
2022/08/20 09:03:00;;;;;;;2.35;1.33;;;;;;;20.18;100.00;95990.59;5047589;28;24988;-73
2022/08/20 09:05:33;;;;;;;5.95;1.55;;;;;;;20.38;100.00;95986.81;5051047;28;24434;-73
2022/08/20 09:08:02;;;;;;;1.70;1.42;;;;;;;20.57;100.00;95987.66;5047965;28;24438;-73
2022/08/20 09:10:29;;;;;;;1.30;1.20;;;;;;;20.57;100.00;95990.28;5044360;28;25008;-73
2022/08/20 09:12:56;;;;;;;1.70;1.25;;;;;;;20.46;100.00;95994.75;5048101;28;24427;-73
2022/08/20 09:15:22;;;;;;;2.05;1.60;;;;;;;20.35;100.00;95991.53;5050971;28;24432;-73
2022/08/20 09:17:49;;;;;;;2.20;1.50;;;;;;;20.25;100.00;95984.56;5048029;28;24448;-73
2022/08/20 09:20:18;;;;;;;2.30;1.75;;;;;;;20.29;100.00;95988.53;5050388;28;25003;-73
2022/08/20 09:22:44;;;;;;;2.15;1.30;;;;;;;20.34;100.00;95985.47;5048536;28;24506;-73
2022/08/20 09:25:11;;;;;;;2.72;1.55;;;;;;;20.40;100.00;95982.22;5050805;28;24435;-73
2022/08/20 09:27:38;;;;;;;1.60;1.47;;;;;;;20.28;100.00;95988.69;5048701;28;24509;-74
2022/08/20 09:30:05;;;;;;;1.65;1.48;;;;;;;20.41;100.00;95985.69;5051250;28;24439;-73
2022/08/20 09:32:32;;;;;;;1.88;1.65;;;;;;;20.17;100.00;95978.38;5048304;28;24433;-73
2022/08/20 09:34:58;;;;;;;1.52;1.42;;;;;;;20.05;100.00;96002.28;5045757;28;24435;-73
2022/08/20 09:37:28;;;;;;;2.78;1.45;;;;;;;19.86;100.00;95988.44;5048750;28;24447;-73
2022/08/20 09:39:55;;;;;;;2.92;1.92;;;;;;;19.74;100.00;95999.16;5046225;28;24790;-73
2022/08/20 09:42:24;;;;;;;1.38;1.27;;;;;;;19.63;100.00;95993.28;5043069;28;24431;-73
2022/08/20 09:44:51;;;;;;;2.00;1.70;;;;;;;19.34;100.00;95995.03;5046183;28;24965;-73
2022/08/20 09:47:17;;;;;;;2.17;1.48;;;;;;;19.31;100.00;95997.13;5048910;28;24427;-73
2022/08/20 09:49:45;;;;;;;2.97;1.80;;;;;;;18.95;100.00;95996.13;5045077;28;24790;-73
2022/08/20 09:52:22;;;;;;;4.30;1.60;;;;;;;18.56;100.00;96001.44;5048869;28;24453;-73
2022/08/20 09:54:50;;;;;;;2.45;1.65;;;;;;;18.65;100.00;95997.13;5045912;28;24489;-73
2022/08/20 09:57:17;;;;;;;2.17;1.45;;;;;;;18.70;100.00;95997.56;5048824;28;24448;-73
2022/08/20 09:59:47;;;;;;;2.15;1.80;;;;;;;18.68;100.00;96005.56;5046201;28;24439;-73
2022/08/20 10:02:14;;;;;;;4.10;1.60;;;;;;;18.61;100.00;96009.69;5048649;28;24427;-74
2022/08/20 10:04:40;;;;;;;2.70;1.52;;;;;;;18.40;100.00;96006.44;5046273;28;24442;-73
2022/08/20 10:07:07;;;;;;;4.10;1.25;;;;;;;18.38;100.00;96014.41;5048942;28;24430;-74
2022/08/20 10:09:34;;;;;;;2.00;1.27;;;;;;;18.23;100.00;96015.78;5045968;28;24439;-74
2022/08/20 10:12:03;;;;;;;8.43;1.47;;;;;;;18.39;100.00;96016.06;5048798;28;24470;-74
2022/08/20 10:14:29;;;;;;;3.08;1.55;;;;;;;18.41;100.00;96014.16;5046279;28;24439;-74
2022/08/20 10:16:57;;;;;;;1.17;1.00;;;;;;;18.35;100.00;96020.78;5049315;28;24455;-74
2022/08/20 10:19:24;;;;;;;1.67;0.88;;;;;;;18.54;100.00;96013.84;5046868;28;24440;-74
2022/08/20 10:21:51;;;;;;;1.90;1.30;;;;;;;18.59;100.00;96016.91;5042385;28;24598;-73
2022/08/20 10:24:18;;;;;;;2.15;1.15;;;;;;;18.73;100.00;96013.06;5046735;28;24468;-74
2022/08/20 10:26:44;;;;;;;1.40;1.02;;;;;;;18.69;100.00;96009.00;5048628;28;24427;-74
2022/08/20 10:29:12;;;;;;;1.30;1.00;;;;;;;18.62;100.00;96012.19;5047551;28;24542;-73
2022/08/20 10:31:39;;;;;;;1.60;1.00;;;;;;;18.66;100.00;96006.69;5047703;28;24434;-73
2022/08/20 10:34:06;;;;;;;1.45;1.20;;;;;;;18.74;100.00;96002.41;5046359;28;24445;-73
2022/08/20 10:36:32;;;;;;;1.90;1.05;;;;;;;18.90;100.00;95996.56;5048413;28;24430;-73
2022/08/20 10:38:59;;;;;;;1.60;1.05;;;;;;;18.96;100.00;95998.63;5049163;28;24454;-73
2022/08/20 10:41:27;;;;;;;1.75;1.10;;;;;;;19.14;100.00;95995.28;5035448;28;24558;-73
2022/08/20 10:43:53;;;;;;;2.10;0.90;;;;;;;19.26;100.00;95989.69;5045783;28;24488;-73
2022/08/20 10:46:21;;;;;;;4.50;1.20;;;;;;;19.25;100.00;95987.22;5047715;28;24432;-75
2022/08/20 10:48:47;;;;;;;4.22;0.95;;;;;;;19.44;100.00;95986.31;5045157;28;24427;-73
2022/08/20 10:51:14;;;;;;;1.50;0.90;;;;;;;19.66;100.00;95985.94;5047634;28;24442;-74
2022/08/20 10:53:40;;;;;;;1.02;0.70;;;;;;;19.83;100.00;95987.75;5044770;28;24446;-75
2022/08/20 10:56:07;;;;;;;1.25;0.80;;;;;;;19.73;100.00;95986.19;5047528;28;24430;-74
2022/08/20 10:58:33;;;;;;;1.55;1.00;;;;;;;20.08;100.00;95985.38;5045039;28;25062;-75
2022/08/20 11:01:00;;;;;;;0.90;0.70;;;;;;;20.09;100.00;95978.31;5048001;28;24435;-74
2022/08/20 11:03:28;;;;;;;0.60;0.60;;;;;;;20.29;100.00;95979.84;5046974;28;24511;-75
2022/08/20 11:05:54;;;;;;;0.90;0.60;;;;;;;20.41;100.00;95989.13;5040848;28;24987;-75
2022/08/20 11:08:21;;;;;;;0.80;0.50;;;;;;;20.35;100.00;95983.66;5041589;28;24430;-74
2022/08/20 11:10:47;;;;;;;0.60;0.40;;;;;;;20.08;100.00;95989.81;5047669;28;24430;-74
2022/08/20 11:13:14;;;;;;;0.93;0.40;;;;;;;20.00;100.00;95983.50;5044612;28;24791;-74
2022/08/20 11:15:43;;;;;;;0.77;0.30;;;;;;;19.78;100.00;95986.56;5048394;28;24458;-73
2022/08/20 11:18:11;;;;;;;0.30;0.30;;;;;;;19.53;100.00;95985.41;5045662;28;24447;-75
2022/08/20 11:20:40;;;;;;;2.20;0.60;;;;;;;19.54;100.00;95985.28;5048558;28;24427;-75
2022/08/20 11:23:06;;;;;;;0.30;0.30;;;;;;;19.71;100.00;95993.38;5045930;28;24980;-74
2022/08/20 11:25:32;;;;;;;0.65;0.40;;;;;;;19.69;100.00;95995.31;5048563;28;24830;-74
2022/08/20 11:27:59;;;;;;;0.30;0.30;;;;;;;19.71;100.00;95993.38;5045754;28;24976;-74
2022/08/20 11:30:28;;;;;;;1.10;0.40;;;;;;;19.88;100.00;95987.34;5049073;28;24439;-75
2022/08/20 11:32:55;;;;;;;0.93;0.52;;;;;;;19.81;100.00;95991.53;5045882;28;24427;-73
2022/08/20 11:35:22;;;;;;;1.20;0.70;;;;;;;20.02;100.00;95986.81;5042194;28;24979;-74
2022/08/20 11:37:51;;;;;;;0.55;0.40;;;;;;;20.19;100.00;95994.84;5046037;28;24538;-73